sensor_id;sensor_type;location;lat;lon;timestamp;temperature;humidity
78898;DHT22;70344;44.736;37.800;2023-05-29T00:00:47;25.19;59.25
78898;DHT22;70344;44.736;37.800;2023-05-29T00:01:48;25.19;59.33
78898;DHT22;70344;44.736;37.800;2023-05-29T00:02:50;25.19;59.34
78898;DHT22;70344;44.736;37.800;2023-05-29T00:03:52;25.18;59.50
78898;DHT22;70344;44.736;37.800;2023-05-29T00:05:20;25.21;59.27
78898;DHT22;70344;44.736;37.800;2023-05-29T00:06:21;25.21;59.33
78898;DHT22;70344;44.736;37.800;2023-05-29T00:07:24;25.22;59.29
78898;DHT22;70344;44.736;37.800;2023-05-29T00:08:25;25.21;59.16
78898;DHT22;70344;44.736;37.800;2023-05-29T00:09:26;25.21;59.13
78898;DHT22;70344;44.736;37.800;2023-05-29T00:10:29;25.19;59.13
78898;DHT22;70344;44.736;37.800;2023-05-29T00:11:32;25.21;59.13
78898;DHT22;70344;44.736;37.800;2023-05-29T00:12:35;25.21;59.29
78898;DHT22;70344;44.736;37.800;2023-05-29T00:13:36;25.22;59.35
78898;DHT22;70344;44.736;37.800;2023-05-29T00:14:38;25.21;59.33
78898;DHT22;70344;44.736;37.800;2023-05-29T00:15:39;25.22;59.34
78898;DHT22;70344;44.736;37.800;2023-05-29T00:16:40;25.24;59.36
78898;DHT22;70344;44.736;37.800;2023-05-29T00:17:45;25.22;59.48
78898;DHT22;70344;44.736;37.800;2023-05-29T00:18:46;25.22;59.43
78898;DHT22;70344;44.736;37.800;2023-05-29T00:19:48;25.21;59.40
78898;DHT22;70344;44.736;37.800;2023-05-29T00:20:50;25.21;59.54
78898;DHT22;70344;44.736;37.800;2023-05-29T00:21:53;25.22;59.53
78898;DHT22;70344;44.736;37.800;2023-05-29T00:22:55;25.24;59.59
78898;DHT22;70344;44.736;37.800;2023-05-29T00:23:56;25.25;59.70
78898;DHT22;70344;44.736;37.800;2023-05-29T00:24:58;25.22;59.66
78898;DHT22;70344;44.736;37.800;2023-05-29T00:25:59;25.22;59.47
78898;DHT22;70344;44.736;37.800;2023-05-29T00:27:01;25.21;59.46
78898;DHT22;70344;44.736;37.800;2023-05-29T00:28:02;25.24;59.37
78898;DHT22;70344;44.736;37.800;2023-05-29T00:29:04;25.21;59.46
78898;DHT22;70344;44.736;37.800;2023-05-29T00:30:08;25.22;59.35
78898;DHT22;70344;44.736;37.800;2023-05-29T00:31:09;25.24;59.37
78898;DHT22;70344;44.736;37.800;2023-05-29T00:32:12;25.21;59.36
78898;DHT22;70344;44.736;37.800;2023-05-29T00:33:35;25.22;59.53
78898;DHT22;70344;44.736;37.800;2023-05-29T00:34:36;25.22;59.47
78898;DHT22;70344;44.736;37.800;2023-05-29T00:35:38;25.24;59.36
78898;DHT22;70344;44.736;37.800;2023-05-29T00:36:39;25.22;59.35
78898;DHT22;70344;44.736;37.800;2023-05-29T00:37:41;25.24;59.40
78898;DHT22;70344;44.736;37.800;2023-05-29T00:38:42;25.21;59.33
78898;DHT22;70344;44.736;37.800;2023-05-29T00:39:43;25.21;59.30
78898;DHT22;70344;44.736;37.800;2023-05-29T00:40:46;25.21;59.35
78898;DHT22;70344;44.736;37.800;2023-05-29T00:41:48;25.19;59.33
78898;DHT22;70344;44.736;37.800;2023-05-29T00:42:52;25.19;59.28
78898;DHT22;70344;44.736;37.800;2023-05-29T00:43:53;25.21;59.28
78898;DHT22;70344;44.736;37.800;2023-05-29T00:44:55;25.22;59.56
78898;DHT22;70344;44.736;37.800;2023-05-29T00:45:56;25.19;59.47
78898;DHT22;70344;44.736;37.800;2023-05-29T00:46:58;25.21;59.31
78898;DHT22;70344;44.736;37.800;2023-05-29T00:48:00;25.22;59.44
78898;DHT22;70344;44.736;37.800;2023-05-29T00:49:01;25.21;59.57
78898;DHT22;70344;44.736;37.800;2023-05-29T00:50:03;25.21;59.57
78898;DHT22;70344;44.736;37.800;2023-05-29T00:51:05;25.21;59.42
78898;DHT22;70344;44.736;37.800;2023-05-29T00:52:09;25.19;59.31
78898;DHT22;70344;44.736;37.800;2023-05-29T00:53:11;25.21;59.35
78898;DHT22;70344;44.736;37.800;2023-05-29T00:54:15;25.22;59.37
78898;DHT22;70344;44.736;37.800;2023-05-29T00:55:18;25.21;59.37
78898;DHT22;70344;44.736;37.800;2023-05-29T00:56:21;25.22;59.36
78898;DHT22;70344;44.736;37.800;2023-05-29T00:57:23;25.22;59.37
78898;DHT22;70344;44.736;37.800;2023-05-29T00:58:25;25.21;59.34
78898;DHT22;70344;44.736;37.800;2023-05-29T00:59:29;25.22;59.30
78898;DHT22;70344;44.736;37.800;2023-05-29T01:00:30;25.21;59.35
78898;DHT22;70344;44.736;37.800;2023-05-29T01:01:34;25.21;59.34
78898;DHT22;70344;44.736;37.800;2023-05-29T01:02:37;25.18;59.34
78898;DHT22;70344;44.736;37.800;2023-05-29T01:03:40;25.21;59.29
78898;DHT22;70344;44.736;37.800;2023-05-29T01:04:44;25.22;59.44
78898;DHT22;70344;44.736;37.800;2023-05-29T01:05:46;25.24;59.35
78898;DHT22;70344;44.736;37.800;2023-05-29T01:06:48;25.21;59.37
78898;DHT22;70344;44.736;37.800;2023-05-29T01:07:50;25.19;59.44
78898;DHT22;70344;44.736;37.800;2023-05-29T01:08:52;25.21;59.46
78898;DHT22;70344;44.736;37.800;2023-05-29T01:09:53;25.19;59.48
78898;DHT22;70344;44.736;37.800;2023-05-29T01:11:01;25.21;59.48
78898;DHT22;70344;44.736;37.800;2023-05-29T01:12:25;25.21;59.44
78898;DHT22;70344;44.736;37.800;2023-05-29T01:13:30;25.16;59.52
78898;DHT22;70344;44.736;37.800;2023-05-29T01:14:44;25.19;59.50
78898;DHT22;70344;44.736;37.800;2023-05-29T01:15:54;25.19;59.56
78898;DHT22;70344;44.736;37.800;2023-05-29T01:17:14;25.18;59.58
78898;DHT22;70344;44.736;37.800;2023-05-29T01:18:27;25.19;59.52
78898;DHT22;70344;44.736;37.800;2023-05-29T01:19:44;25.19;59.50
78898;DHT22;70344;44.736;37.800;2023-05-29T01:20:56;25.18;59.62
78898;DHT22;70344;44.736;37.800;2023-05-29T01:24:29;25.19;59.79
78898;DHT22;70344;44.736;37.800;2023-05-29T01:27:07;25.19;59.84
78898;DHT22;70344;44.736;37.800;2023-05-29T01:28:11;25.18;59.95
78898;DHT22;70344;44.736;37.800;2023-05-29T01:29:17;25.14;59.71
78898;DHT22;70344;44.736;37.800;2023-05-29T01:30:22;25.16;59.90
78898;DHT22;70344;44.736;37.800;2023-05-29T01:31:25;25.15;59.78
78898;DHT22;70344;44.736;37.800;2023-05-29T01:32:27;25.14;59.90
78898;DHT22;70344;44.736;37.800;2023-05-29T01:33:29;25.12;59.88
78898;DHT22;70344;44.736;37.800;2023-05-29T01:34:31;25.15;59.95
78898;DHT22;70344;44.736;37.800;2023-05-29T01:35:32;25.15;59.97
78898;DHT22;70344;44.736;37.800;2023-05-29T01:36:33;25.12;59.92
78898;DHT22;70344;44.736;37.800;2023-05-29T01:37:37;25.16;59.91
78898;DHT22;70344;44.736;37.800;2023-05-29T01:38:38;25.14;59.80
78898;DHT22;70344;44.736;37.800;2023-05-29T01:39:40;25.14;59.82
78898;DHT22;70344;44.736;37.800;2023-05-29T01:40:41;25.14;59.80
78898;DHT22;70344;44.736;37.800;2023-05-29T01:41:44;25.14;59.78
78898;DHT22;70344;44.736;37.800;2023-05-29T01:42:46;25.15;59.63
78898;DHT22;70344;44.736;37.800;2023-05-29T01:43:49;25.15;59.61
78898;DHT22;70344;44.736;37.800;2023-05-29T01:44:52;25.11;59.86
78898;DHT22;70344;44.736;37.800;2023-05-29T01:45:54;25.12;59.96
78898;DHT22;70344;44.736;37.800;2023-05-29T01:46:56;25.12;60.16
78898;DHT22;70344;44.736;37.800;2023-05-29T01:47:58;25.15;60.16
78898;DHT22;70344;44.736;37.800;2023-05-29T01:48:59;25.14;60.05
78898;DHT22;70344;44.736;37.800;2023-05-29T01:50:03;25.14;60.18
78898;DHT22;70344;44.736;37.800;2023-05-29T01:51:05;25.14;60.16
78898;DHT22;70344;44.736;37.800;2023-05-29T01:52:07;25.15;60.11
78898;DHT22;70344;44.736;37.800;2023-05-29T01:53:09;25.11;60.07
78898;DHT22;70344;44.736;37.800;2023-05-29T01:54:11;25.15;60.15
78898;DHT22;70344;44.736;37.800;2023-05-29T01:55:12;25.12;60.18
78898;DHT22;70344;44.736;37.800;2023-05-29T01:56:14;25.14;60.08
78898;DHT22;70344;44.736;37.800;2023-05-29T01:57:16;25.11;60.06
78898;DHT22;70344;44.736;37.800;2023-05-29T01:58:20;25.12;60.08
78898;DHT22;70344;44.736;37.800;2023-05-29T01:59:22;25.11;60.07
78898;DHT22;70344;44.736;37.800;2023-05-29T02:00:24;25.12;60.05
78898;DHT22;70344;44.736;37.800;2023-05-29T02:01:26;25.14;60.07
78898;DHT22;70344;44.736;37.800;2023-05-29T02:02:41;25.14;60.11
78898;DHT22;70344;44.736;37.800;2023-05-29T02:03:43;25.11;60.00
78898;DHT22;70344;44.736;37.800;2023-05-29T02:04:45;25.11;59.97
78898;DHT22;70344;44.736;37.800;2023-05-29T02:06:05;25.12;60.02
78898;DHT22;70344;44.736;37.800;2023-05-29T02:07:08;25.11;60.05
78898;DHT22;70344;44.736;37.800;2023-05-29T02:08:10;25.14;60.02
78898;DHT22;70344;44.736;37.800;2023-05-29T02:09:13;25.14;59.99
78898;DHT22;70344;44.736;37.800;2023-05-29T02:10:14;25.12;59.99
78898;DHT22;70344;44.736;37.800;2023-05-29T02:11:16;25.11;60.02
78898;DHT22;70344;44.736;37.800;2023-05-29T02:12:18;25.14;60.04
78898;DHT22;70344;44.736;37.800;2023-05-29T02:13:19;25.10;60.00
78898;DHT22;70344;44.736;37.800;2023-05-29T02:14:22;25.12;60.02
78898;DHT22;70344;44.736;37.800;2023-05-29T02:15:26;25.12;59.91
78898;DHT22;70344;44.736;37.800;2023-05-29T02:16:27;25.12;59.92
78898;DHT22;70344;44.736;37.800;2023-05-29T02:17:30;25.11;60.01
78898;DHT22;70344;44.736;37.800;2023-05-29T02:18:32;25.11;59.85
78898;DHT22;70344;44.736;37.800;2023-05-29T02:19:35;25.11;59.93
78898;DHT22;70344;44.736;37.800;2023-05-29T02:20:38;25.14;59.92
78898;DHT22;70344;44.736;37.800;2023-05-29T02:21:40;25.12;59.89
78898;DHT22;70344;44.736;37.800;2023-05-29T02:22:44;25.11;59.82
78898;DHT22;70344;44.736;37.800;2023-05-29T02:23:46;25.12;59.80
78898;DHT22;70344;44.736;37.800;2023-05-29T02:24:48;25.11;59.84
78898;DHT22;70344;44.736;37.800;2023-05-29T02:25:49;25.12;59.81
78898;DHT22;70344;44.736;37.800;2023-05-29T02:26:51;25.14;60.00
78898;DHT22;70344;44.736;37.800;2023-05-29T02:27:52;25.14;59.90
78898;DHT22;70344;44.736;37.800;2023-05-29T02:28:54;25.11;60.06
78898;DHT22;70344;44.736;37.800;2023-05-29T02:29:55;25.14;59.83
78898;DHT22;70344;44.736;37.800;2023-05-29T02:30:57;25.11;59.84
78898;DHT22;70344;44.736;37.800;2023-05-29T02:31:58;25.12;59.79
78898;DHT22;70344;44.736;37.800;2023-05-29T02:33:00;25.11;59.79
78898;DHT22;70344;44.736;37.800;2023-05-29T02:34:01;25.14;59.84
78898;DHT22;70344;44.736;37.800;2023-05-29T02:35:03;25.12;59.76
78898;DHT22;70344;44.736;37.800;2023-05-29T02:36:04;25.10;59.83
78898;DHT22;70344;44.736;37.800;2023-05-29T02:37:11;25.14;59.93
78898;DHT22;70344;44.736;37.800;2023-05-29T02:38:12;25.11;59.92
78898;DHT22;70344;44.736;37.800;2023-05-29T02:39:15;25.14;59.86
78898;DHT22;70344;44.736;37.800;2023-05-29T02:40:18;25.14;59.88
78898;DHT22;70344;44.736;37.800;2023-05-29T02:41:19;25.12;59.83
78898;DHT22;70344;44.736;37.800;2023-05-29T02:42:22;25.14;59.89
78898;DHT22;70344;44.736;37.800;2023-05-29T02:43:23;25.14;59.87
78898;DHT22;70344;44.736;37.800;2023-05-29T02:44:24;25.14;59.84
78898;DHT22;70344;44.736;37.800;2023-05-29T02:45:26;25.12;59.91
78898;DHT22;70344;44.736;37.800;2023-05-29T02:46:28;25.11;59.97
78898;DHT22;70344;44.736;37.800;2023-05-29T02:47:30;25.12;59.98
78898;DHT22;70344;44.736;37.800;2023-05-29T02:48:32;25.12;59.87
78898;DHT22;70344;44.736;37.800;2023-05-29T02:49:33;25.10;59.86
78898;DHT22;70344;44.736;37.800;2023-05-29T02:50:34;25.12;59.96
78898;DHT22;70344;44.736;37.800;2023-05-29T02:51:54;25.12;59.95
78898;DHT22;70344;44.736;37.800;2023-05-29T02:52:58;25.11;59.95
78898;DHT22;70344;44.736;37.800;2023-05-29T02:53:59;25.14;60.04
78898;DHT22;70344;44.736;37.800;2023-05-29T02:55:01;25.11;59.98
78898;DHT22;70344;44.736;37.800;2023-05-29T02:56:03;25.12;59.97
78898;DHT22;70344;44.736;37.800;2023-05-29T02:57:05;25.11;60.01
78898;DHT22;70344;44.736;37.800;2023-05-29T02:58:07;25.12;59.87
78898;DHT22;70344;44.736;37.800;2023-05-29T02:59:08;25.14;59.94
78898;DHT22;70344;44.736;37.800;2023-05-29T03:00:10;25.11;59.89
78898;DHT22;70344;44.736;37.800;2023-05-29T03:01:12;25.11;59.88
78898;DHT22;70344;44.736;37.800;2023-05-29T03:02:13;25.12;59.88
78898;DHT22;70344;44.736;37.800;2023-05-29T03:03:15;25.14;59.81
78898;DHT22;70344;44.736;37.800;2023-05-29T03:04:16;25.12;59.88
78898;DHT22;70344;44.736;37.800;2023-05-29T03:05:18;25.11;59.84
78898;DHT22;70344;44.736;37.800;2023-05-29T03:06:20;25.12;59.69
78898;DHT22;70344;44.736;37.800;2023-05-29T03:07:21;25.12;59.70
78898;DHT22;70344;44.736;37.800;2023-05-29T03:08:24;25.12;59.74
78898;DHT22;70344;44.736;37.800;2023-05-29T03:09:26;25.12;59.65
78898;DHT22;70344;44.736;37.800;2023-05-29T03:10:28;25.14;59.66
78898;DHT22;70344;44.736;37.800;2023-05-29T03:11:29;25.10;59.62
78898;DHT22;70344;44.736;37.800;2023-05-29T03:12:31;25.11;59.63
78898;DHT22;70344;44.736;37.800;2023-05-29T03:13:33;25.15;59.60
78898;DHT22;70344;44.736;37.800;2023-05-29T03:14:39;25.14;59.58
78898;DHT22;70344;44.736;37.800;2023-05-29T03:15:45;25.11;59.59
78898;DHT22;70344;44.736;37.800;2023-05-29T03:16:48;25.12;59.57
78898;DHT22;70344;44.736;37.800;2023-05-29T03:17:50;25.10;59.48
78898;DHT22;70344;44.736;37.800;2023-05-29T03:18:57;25.12;59.55
78898;DHT22;70344;44.736;37.800;2023-05-29T03:19:58;25.15;59.51
78898;DHT22;70344;44.736;37.800;2023-05-29T03:21:00;25.12;59.50
78898;DHT22;70344;44.736;37.800;2023-05-29T03:22:01;25.12;59.48
78898;DHT22;70344;44.736;37.800;2023-05-29T03:23:05;25.14;59.46
78898;DHT22;70344;44.736;37.800;2023-05-29T03:24:09;25.11;59.36
78898;DHT22;70344;44.736;37.800;2023-05-29T03:25:14;25.12;59.36
78898;DHT22;70344;44.736;37.800;2023-05-29T03:26:18;25.15;59.36
78898;DHT22;70344;44.736;37.800;2023-05-29T03:27:20;25.14;59.45
78898;DHT22;70344;44.736;37.800;2023-05-29T03:28:30;25.14;59.55
78898;DHT22;70344;44.736;37.800;2023-05-29T03:29:33;25.12;59.52
78898;DHT22;70344;44.736;37.800;2023-05-29T03:30:36;25.15;59.49
78898;DHT22;70344;44.736;37.800;2023-05-29T03:31:37;25.15;59.48
78898;DHT22;70344;44.736;37.800;2023-05-29T03:32:39;25.14;59.48
78898;DHT22;70344;44.736;37.800;2023-05-29T03:33:41;25.12;59.53
78898;DHT22;70344;44.736;37.800;2023-05-29T03:35:06;25.15;59.50
78898;DHT22;70344;44.736;37.800;2023-05-29T03:36:08;25.14;59.51
78898;DHT22;70344;44.736;37.800;2023-05-29T03:37:09;25.18;59.46
78898;DHT22;70344;44.736;37.800;2023-05-29T03:38:12;25.16;59.46
78898;DHT22;70344;44.736;37.800;2023-05-29T03:39:13;25.19;59.55
78898;DHT22;70344;44.736;37.800;2023-05-29T03:40:15;25.21;59.71
78898;DHT22;70344;44.736;37.800;2023-05-29T03:41:17;25.19;59.77
78898;DHT22;70344;44.736;37.800;2023-05-29T03:42:19;25.22;60.17
78898;DHT22;70344;44.736;37.800;2023-05-29T03:43:22;25.21;60.19
78898;DHT22;70344;44.736;37.800;2023-05-29T03:44:24;25.21;60.18
78898;DHT22;70344;44.736;37.800;2023-05-29T03:45:25;25.19;60.23
78898;DHT22;70344;44.736;37.800;2023-05-29T03:46:27;25.22;60.12
78898;DHT22;70344;44.736;37.800;2023-05-29T03:47:29;25.19;60.13
78898;DHT22;70344;44.736;37.800;2023-05-29T03:48:31;25.22;60.10
78898;DHT22;70344;44.736;37.800;2023-05-29T03:49:32;25.22;60.07
78898;DHT22;70344;44.736;37.800;2023-05-29T03:50:34;25.21;60.01
78898;DHT22;70344;44.736;37.800;2023-05-29T03:51:36;25.25;59.91
78898;DHT22;70344;44.736;37.800;2023-05-29T03:52:38;25.24;60.03
78898;DHT22;70344;44.736;37.800;2023-05-29T03:54:04;25.24;60.01
78898;DHT22;70344;44.736;37.800;2023-05-29T03:55:20;25.24;59.99
78898;DHT22;70344;44.736;37.800;2023-05-29T03:56:23;25.25;60.02
78898;DHT22;70344;44.736;37.800;2023-05-29T03:57:25;25.26;59.97
78898;DHT22;70344;44.736;37.800;2023-05-29T03:58:28;25.25;60.00
78898;DHT22;70344;44.736;37.800;2023-05-29T03:59:30;25.25;59.98
78898;DHT22;70344;44.736;37.800;2023-05-29T04:00:32;25.26;59.97
78898;DHT22;70344;44.736;37.800;2023-05-29T04:01:37;25.25;59.96
78898;DHT22;70344;44.736;37.800;2023-05-29T04:02:57;25.28;59.99
78898;DHT22;70344;44.736;37.800;2023-05-29T04:03:59;25.25;60.04
78898;DHT22;70344;44.736;37.800;2023-05-29T04:05:00;25.26;60.00
78898;DHT22;70344;44.736;37.800;2023-05-29T04:06:02;25.26;59.96
78898;DHT22;70344;44.736;37.800;2023-05-29T04:07:03;25.26;59.97
78898;DHT22;70344;44.736;37.800;2023-05-29T04:08:06;25.26;59.85
78898;DHT22;70344;44.736;37.800;2023-05-29T04:09:09;25.25;59.99
78898;DHT22;70344;44.736;37.800;2023-05-29T04:10:11;25.25;59.73
78898;DHT22;70344;44.736;37.800;2023-05-29T04:11:14;25.29;59.51
78898;DHT22;70344;44.736;37.800;2023-05-29T04:12:15;25.26;59.61
78898;DHT22;70344;44.736;37.800;2023-05-29T04:13:17;25.26;59.79
78898;DHT22;70344;44.736;37.800;2023-05-29T04:14:19;25.26;59.66
78898;DHT22;70344;44.736;37.800;2023-05-29T04:15:20;25.28;59.61
78898;DHT22;70344;44.736;37.800;2023-05-29T04:16:22;25.26;59.60
78898;DHT22;70344;44.736;37.800;2023-05-29T04:17:24;25.29;59.64
78898;DHT22;70344;44.736;37.800;2023-05-29T04:18:25;25.28;59.57
78898;DHT22;70344;44.736;37.800;2023-05-29T04:19:27;25.26;59.51
78898;DHT22;70344;44.736;37.800;2023-05-29T04:20:29;25.26;59.46
78898;DHT22;70344;44.736;37.800;2023-05-29T04:21:31;25.29;59.56
78898;DHT22;70344;44.736;37.800;2023-05-29T04:22:36;25.26;59.46
78898;DHT22;70344;44.736;37.800;2023-05-29T04:23:37;25.26;59.46
78898;DHT22;70344;44.736;37.800;2023-05-29T04:24:39;25.28;59.21
78898;DHT22;70344;44.736;37.800;2023-05-29T04:25:54;25.29;59.38
78898;DHT22;70344;44.736;37.800;2023-05-29T04:27:00;25.28;59.47
78898;DHT22;70344;44.736;37.800;2023-05-29T04:28:04;25.28;59.36
78898;DHT22;70344;44.736;37.800;2023-05-29T04:29:05;25.26;59.33
78898;DHT22;70344;44.736;37.800;2023-05-29T04:30:08;25.28;59.39
78898;DHT22;70344;44.736;37.800;2023-05-29T04:31:14;25.29;59.65
78898;DHT22;70344;44.736;37.800;2023-05-29T04:32:17;25.29;59.52
78898;DHT22;70344;44.736;37.800;2023-05-29T04:33:21;25.31;59.55
78898;DHT22;70344;44.736;37.800;2023-05-29T04:34:25;25.31;59.35
78898;DHT22;70344;44.736;37.800;2023-05-29T04:35:27;25.32;59.65
78898;DHT22;70344;44.736;37.800;2023-05-29T04:36:34;25.31;59.60
78898;DHT22;70344;44.736;37.800;2023-05-29T04:37:42;25.29;59.45
78898;DHT22;70344;44.736;37.800;2023-05-29T04:38:45;25.31;59.48
78898;DHT22;70344;44.736;37.800;2023-05-29T04:39:48;25.31;59.46
78898;DHT22;70344;44.736;37.800;2023-05-29T04:40:57;25.32;59.46
78898;DHT22;70344;44.736;37.800;2023-05-29T04:42:00;25.32;59.43
78898;DHT22;70344;44.736;37.800;2023-05-29T04:43:02;25.32;59.46
78898;DHT22;70344;44.736;37.800;2023-05-29T04:44:18;25.32;59.48
78898;DHT22;70344;44.736;37.800;2023-05-29T04:45:23;25.29;59.46
78898;DHT22;70344;44.736;37.800;2023-05-29T04:46:27;25.32;59.45
78898;DHT22;70344;44.736;37.800;2023-05-29T04:47:29;25.32;59.42
78898;DHT22;70344;44.736;37.800;2023-05-29T04:48:30;25.32;59.46
78898;DHT22;70344;44.736;37.800;2023-05-29T04:49:33;25.31;59.45
78898;DHT22;70344;44.736;37.800;2023-05-29T04:50:34;25.29;59.43
78898;DHT22;70344;44.736;37.800;2023-05-29T04:51:37;25.32;59.38
78898;DHT22;70344;44.736;37.800;2023-05-29T04:52:42;25.31;59.41
78898;DHT22;70344;44.736;37.800;2023-05-29T04:53:45;25.31;59.38
78898;DHT22;70344;44.736;37.800;2023-05-29T04:54:47;25.28;59.34
78898;DHT22;70344;44.736;37.800;2023-05-29T04:55:50;25.32;59.30
78898;DHT22;70344;44.736;37.800;2023-05-29T04:56:52;25.32;59.37
78898;DHT22;70344;44.736;37.800;2023-05-29T04:57:58;25.32;59.34
78898;DHT22;70344;44.736;37.800;2023-05-29T04:58:59;25.32;59.33
78898;DHT22;70344;44.736;37.800;2023-05-29T05:00:02;25.31;59.34
78898;DHT22;70344;44.736;37.800;2023-05-29T05:01:09;25.31;59.19
78898;DHT22;70344;44.736;37.800;2023-05-29T05:02:15;25.29;59.24
78898;DHT22;70344;44.736;37.800;2023-05-29T05:03:16;25.28;59.15
78898;DHT22;70344;44.736;37.800;2023-05-29T05:04:18;25.29;59.18
78898;DHT22;70344;44.736;37.800;2023-05-29T05:05:20;25.31;59.19
78898;DHT22;70344;44.736;37.800;2023-05-29T05:06:22;25.28;59.15
78898;DHT22;70344;44.736;37.800;2023-05-29T05:07:23;25.29;59.14
78898;DHT22;70344;44.736;37.800;2023-05-29T05:08:25;25.31;59.15
78898;DHT22;70344;44.736;37.800;2023-05-29T05:09:26;25.29;59.14
78898;DHT22;70344;44.736;37.800;2023-05-29T05:10:28;25.28;59.14
78898;DHT22;70344;44.736;37.800;2023-05-29T05:11:29;25.29;59.15
78898;DHT22;70344;44.736;37.800;2023-05-29T05:12:31;25.31;59.17
78898;DHT22;70344;44.736;37.800;2023-05-29T05:13:34;25.31;59.13
78898;DHT22;70344;44.736;37.800;2023-05-29T05:14:36;25.29;59.10
78898;DHT22;70344;44.736;37.800;2023-05-29T05:15:37;25.29;59.12
78898;DHT22;70344;44.736;37.800;2023-05-29T05:16:39;25.32;59.09
78898;DHT22;70344;44.736;37.800;2023-05-29T05:17:42;25.28;59.11
78898;DHT22;70344;44.736;37.800;2023-05-29T05:18:43;25.28;59.06
78898;DHT22;70344;44.736;37.800;2023-05-29T05:19:45;25.32;59.09
78898;DHT22;70344;44.736;37.800;2023-05-29T05:20:47;25.31;59.00
78898;DHT22;70344;44.736;37.800;2023-05-29T05:21:48;25.29;59.05
78898;DHT22;70344;44.736;37.800;2023-05-29T05:22:50;25.31;59.08
78898;DHT22;70344;44.736;37.800;2023-05-29T05:23:51;25.29;59.00
78898;DHT22;70344;44.736;37.800;2023-05-29T05:24:53;25.29;58.99
78898;DHT22;70344;44.736;37.800;2023-05-29T05:25:55;25.29;58.99
78898;DHT22;70344;44.736;37.800;2023-05-29T05:26:58;25.29;59.01
78898;DHT22;70344;44.736;37.800;2023-05-29T05:27:59;25.29;59.03
78898;DHT22;70344;44.736;37.800;2023-05-29T05:29:02;25.31;59.00
78898;DHT22;70344;44.736;37.800;2023-05-29T05:30:06;25.31;59.00
78898;DHT22;70344;44.736;37.800;2023-05-29T05:31:08;25.28;59.05
78898;DHT22;70344;44.736;37.800;2023-05-29T05:32:10;25.29;59.06
78898;DHT22;70344;44.736;37.800;2023-05-29T05:33:11;25.31;58.92
78898;DHT22;70344;44.736;37.800;2023-05-29T05:34:13;25.31;59.10
78898;DHT22;70344;44.736;37.800;2023-05-29T05:35:17;25.28;59.29
78898;DHT22;70344;44.736;37.800;2023-05-29T05:36:19;25.33;59.37
78898;DHT22;70344;44.736;37.800;2023-05-29T05:37:23;25.32;59.33
78898;DHT22;70344;44.736;37.800;2023-05-29T05:38:25;25.32;59.35
78898;DHT22;70344;44.736;37.800;2023-05-29T05:39:27;25.33;59.39
78898;DHT22;70344;44.736;37.800;2023-05-29T05:40:28;25.33;59.36
78898;DHT22;70344;44.736;37.800;2023-05-29T05:41:35;25.31;59.41
78898;DHT22;70344;44.736;37.800;2023-05-29T05:42:37;25.32;59.36
78898;DHT22;70344;44.736;37.800;2023-05-29T05:43:43;25.32;59.37
78898;DHT22;70344;44.736;37.800;2023-05-29T05:44:48;25.32;59.41
78898;DHT22;70344;44.736;37.800;2023-05-29T05:45:50;25.33;59.35
78898;DHT22;70344;44.736;37.800;2023-05-29T05:46:52;25.32;59.35
78898;DHT22;70344;44.736;37.800;2023-05-29T05:47:56;25.32;59.33
78898;DHT22;70344;44.736;37.800;2023-05-29T05:48:58;25.33;59.30
78898;DHT22;70344;44.736;37.800;2023-05-29T05:50:02;25.33;59.29
78898;DHT22;70344;44.736;37.800;2023-05-29T05:51:04;25.32;59.26
78898;DHT22;70344;44.736;37.800;2023-05-29T05:52:06;25.32;59.29
78898;DHT22;70344;44.736;37.800;2023-05-29T05:53:09;25.33;59.23
78898;DHT22;70344;44.736;37.800;2023-05-29T05:54:10;25.33;59.27
78898;DHT22;70344;44.736;37.800;2023-05-29T05:55:11;25.33;59.24
78898;DHT22;70344;44.736;37.800;2023-05-29T05:56:14;25.36;59.18
78898;DHT22;70344;44.736;37.800;2023-05-29T05:57:16;25.35;59.19
78898;DHT22;70344;44.736;37.800;2023-05-29T05:58:17;25.35;59.16
78898;DHT22;70344;44.736;37.800;2023-05-29T05:59:19;25.33;59.16
78898;DHT22;70344;44.736;37.800;2023-05-29T06:00:22;25.33;59.15
78898;DHT22;70344;44.736;37.800;2023-05-29T06:01:23;25.35;59.19
78898;DHT22;70344;44.736;37.800;2023-05-29T06:02:25;25.35;59.19
78898;DHT22;70344;44.736;37.800;2023-05-29T06:03:27;25.35;59.16
78898;DHT22;70344;44.736;37.800;2023-05-29T06:04:40;25.36;59.18
78898;DHT22;70344;44.736;37.800;2023-05-29T06:05:44;25.35;59.19
78898;DHT22;70344;44.736;37.800;2023-05-29T06:06:45;25.35;59.15
78898;DHT22;70344;44.736;37.800;2023-05-29T06:07:47;25.35;59.15
78898;DHT22;70344;44.736;37.800;2023-05-29T06:08:49;25.35;59.11
78898;DHT22;70344;44.736;37.800;2023-05-29T06:09:51;25.35;59.08
78898;DHT22;70344;44.736;37.800;2023-05-29T06:10:52;25.36;59.11
78898;DHT22;70344;44.736;37.800;2023-05-29T06:11:54;25.35;59.03
78898;DHT22;70344;44.736;37.800;2023-05-29T06:12:57;25.36;59.10
78898;DHT22;70344;44.736;37.800;2023-05-29T06:14:04;25.35;59.02
78898;DHT22;70344;44.736;37.800;2023-05-29T06:15:06;25.33;59.04
78898;DHT22;70344;44.736;37.800;2023-05-29T06:16:09;25.31;59.11
78898;DHT22;70344;44.736;37.800;2023-05-29T06:17:11;25.36;59.08
78898;DHT22;70344;44.736;37.800;2023-05-29T06:18:13;25.35;59.09
78898;DHT22;70344;44.736;37.800;2023-05-29T06:19:14;25.35;59.19
78898;DHT22;70344;44.736;37.800;2023-05-29T06:20:29;25.32;59.20
78898;DHT22;70344;44.736;37.800;2023-05-29T06:21:31;25.33;59.28
78898;DHT22;70344;44.736;37.800;2023-05-29T06:22:33;25.35;59.42
78898;DHT22;70344;44.736;37.800;2023-05-29T06:23:34;25.36;59.42
78898;DHT22;70344;44.736;37.800;2023-05-29T06:24:37;25.32;59.42
78898;DHT22;70344;44.736;37.800;2023-05-29T06:25:38;25.33;59.43
78898;DHT22;70344;44.736;37.800;2023-05-29T06:26:41;25.35;59.43
78898;DHT22;70344;44.736;37.800;2023-05-29T06:27:45;25.33;59.35
78898;DHT22;70344;44.736;37.800;2023-05-29T06:28:47;25.32;59.29
78898;DHT22;70344;44.736;37.800;2023-05-29T06:29:48;25.32;59.35
78898;DHT22;70344;44.736;37.800;2023-05-29T06:30:50;25.32;59.27
78898;DHT22;70344;44.736;37.800;2023-05-29T06:31:53;25.35;59.24
78898;DHT22;70344;44.736;37.800;2023-05-29T06:32:55;25.29;59.19
78898;DHT22;70344;44.736;37.800;2023-05-29T06:34:02;25.32;59.10
78898;DHT22;70344;44.736;37.800;2023-05-29T06:35:04;25.33;59.21
78898;DHT22;70344;44.736;37.800;2023-05-29T06:36:07;25.32;59.20
78898;DHT22;70344;44.736;37.800;2023-05-29T06:37:10;25.32;59.19